Time;durP1;ratioP1;P1;durP2;ratioP2;P2;SDS_P1;SDS_P2;PMS_P1;PMS_P2;Temp;Humidity;BMP_temperature;BMP_pressure;BME280_temperature;BME280_humidity;BME280_pressure;Samples;Min_cycle;Max_cycle;Signal;HPM_P1;HPM_P2
2021/01/13 00:01:06;;;;;;;31.77;12.55;;;;;;;-3.11;96.93;100463.75;1795956;79;21175;-88
2021/01/13 00:03:32;;;;;;;32.38;11.83;;;;;;;-3.23;97.30;100440.42;1797963;79;21194;-89
2021/01/13 00:05:58;;;;;;;28.73;12.03;;;;;;;-3.21;97.74;100419.99;1798003;78;21120;-89
2021/01/13 00:08:24;;;;;;;33.85;11.33;;;;;;;-3.17;97.62;100412.55;1798028;79;21621;-90
2021/01/13 00:10:50;;;;;;;26.82;10.93;;;;;;;-3.20;97.68;100395.78;1798100;79;21116;-89
2021/01/13 00:13:16;;;;;;;32.53;11.12;;;;;;;-3.14;97.84;100392.44;1797969;79;21053;-89
2021/01/13 00:15:42;;;;;;;30.40;12.05;;;;;;;-3.14;98.24;100400.84;1798018;79;21565;-89
2021/01/13 00:18:07;;;;;;;31.90;13.10;;;;;;;-3.15;98.58;100394.73;1797816;79;27467;-89
2021/01/13 00:20:33;;;;;;;28.00;10.63;;;;;;;-2.99;98.81;100392.50;1797877;79;20977;-89
2021/01/13 00:22:59;;;;;;;29.80;11.28;;;;;;;-3.08;98.23;100383.02;1797991;79;20926;-88
2021/01/13 00:25:25;;;;;;;26.42;10.48;;;;;;;-2.98;98.33;100383.08;1797865;79;21132;-88
2021/01/13 00:27:51;;;;;;;28.47;10.90;;;;;;;-3.00;97.92;100366.64;1777754;79;21226;-89
2021/01/13 00:30:18;;;;;;;29.12;10.32;;;;;;;-3.00;97.95;100353.94;1798062;79;26623;-89
2021/01/13 00:32:44;;;;;;;23.95;9.13;;;;;;;-2.97;98.06;100329.38;1798094;79;21112;-88
2021/01/13 00:35:12;;;;;;;25.68;10.35;;;;;;;-3.03;98.28;100298.94;1782147;79;21609;-89
2021/01/13 00:37:39;;;;;;;26.50;9.58;;;;;;;-2.96;98.23;100272.20;1797900;78;21161;-88
2021/01/13 00:40:09;;;;;;;23.47;9.93;;;;;;;-3.05;99.21;100255.64;1798042;79;21180;-89
2021/01/13 00:42:47;;;;;;;22.75;9.30;;;;;;;-2.97;99.73;100263.98;1794972;78;21176;-88
2021/01/13 00:45:17;;;;;;;18.77;8.73;;;;;;;-2.89;99.46;100255.97;1780951;80;21163;-88
2021/01/13 00:47:43;;;;;;;18.07;7.30;;;;;;;-2.90;98.83;100262.25;1780779;80;21176;-88
2021/01/13 00:50:13;;;;;;;19.95;7.80;;;;;;;-2.98;98.14;100254.42;1780960;80;21011;-88
2021/01/13 00:52:47;;;;;;;22.90;8.58;;;;;;;-3.01;97.84;100243.73;1780704;80;21180;-88
2021/01/13 00:55:13;;;;;;;27.52;7.92;;;;;;;-3.09;98.40;100245.16;1778435;80;21621;-88
2021/01/13 00:57:39;;;;;;;20.25;8.65;;;;;;;-3.08;98.85;100232.79;1780916;80;21168;-88
2021/01/13 01:00:07;;;;;;;18.45;8.28;;;;;;;-2.99;99.19;100230.39;1780873;80;20978;-89
2021/01/13 01:02:33;;;;;;;22.67;8.58;;;;;;;-3.00;99.75;100225.62;1780891;80;21211;-88
2021/01/13 01:04:59;;;;;;;19.48;8.15;;;;;;;-2.94;99.44;100218.81;1780863;80;21169;-88
2021/01/13 01:07:25;;;;;;;21.33;7.53;;;;;;;-3.00;98.85;100218.19;1780459;80;26985;-88
2021/01/13 01:09:51;;;;;;;21.35;7.70;;;;;;;-2.94;99.00;100208.27;1780733;80;24057;-88
2021/01/13 01:12:17;;;;;;;19.00;7.92;;;;;;;-2.87;99.34;100217.58;1780873;80;21029;-88
2021/01/13 01:14:43;;;;;;;26.42;9.13;;;;;;;-2.90;99.14;100210.84;1781007;80;20965;-89
2021/01/13 01:17:10;;;;;;;23.27;8.38;;;;;;;-2.92;99.01;100195.70;1781072;80;21244;-89
2021/01/13 01:19:38;;;;;;;24.92;8.70;;;;;;;-2.84;99.29;100211.94;1780818;80;21152;-89
2021/01/13 01:22:05;;;;;;;22.27;8.43;;;;;;;-2.86;100.00;100205.52;1780724;80;21807;-88
2021/01/13 01:24:31;;;;;;;18.05;7.47;;;;;;;-2.85;100.00;100199.77;1780954;80;21116;-89
2021/01/13 01:26:57;;;;;;;17.32;7.42;;;;;;;-2.82;100.00;100202.86;1781058;80;21535;-90
2021/01/13 01:29:24;;;;;;;20.10;6.87;;;;;;;-2.83;99.72;100210.94;1781135;80;21175;-90
2021/01/13 01:31:51;;;;;;;22.75;8.28;;;;;;;-2.78;99.81;100213.34;1780890;80;21140;-90
2021/01/13 05:52:32;;;;;;;21.52;7.58;;;;;;;-3.20;100.00;99705.45;1826957;77;25920;-86
2021/01/13 05:54:59;;;;;;;19.95;7.05;;;;;;;-2.89;100.00;99708.17;1767452;80;21112;-86
2021/01/13 05:57:25;;;;;;;14.58;5.97;;;;;;;-2.64;100.00;99703.25;1773023;80;21152;-86
2021/01/13 05:59:57;;;;;;;15.98;5.87;;;;;;;-2.40;100.00;99696.14;1749362;80;21157;-86
2021/01/13 06:02:28;;;;;;;12.95;5.30;;;;;;;-2.32;100.00;99680.66;1756482;80;21728;-87
2021/01/13 06:05:04;;;;;;;12.28;4.62;;;;;;;-2.20;100.00;99679.06;1752871;80;21127;-87
2021/01/13 06:07:31;;;;;;;12.65;4.65;;;;;;;-2.06;100.00;99668.00;1751378;80;21187;-86
2021/01/13 06:10:00;;;;;;;16.12;5.10;;;;;;;-1.94;100.00;99690.66;1751205;80;21181;-86
2021/01/13 06:12:30;;;;;;;11.95;4.40;;;;;;;-1.86;100.00;99705.00;1731306;80;21205;-86
2021/01/13 06:14:56;;;;;;;11.97;5.22;;;;;;;-1.73;100.00;99676.50;1772112;80;21179;-86
2021/01/13 06:17:25;;;;;;;12.37;4.20;;;;;;;-1.80;100.00;99649.26;1749952;80;21136;-87
2021/01/13 06:19:53;;;;;;;9.85;3.85;;;;;;;-1.59;100.00;99625.28;1764253;80;21205;-86
2021/01/13 06:22:32;;;;;;;11.70;4.33;;;;;;;-1.61;100.00;99615.45;1757845;80;21220;-86
2021/01/13 06:25:01;;;;;;;13.00;4.67;;;;;;;-1.56;100.00;99600.28;1749078;80;21169;-87
2021/01/13 06:27:49;;;;;;;11.20;3.98;;;;;;;-1.60;100.00;99584.84;1754504;80;21129;-87
2021/01/13 06:30:18;;;;;;;9.33;3.90;;;;;;;-1.57;100.00;99578.34;1687693;82;21239;-86
2021/01/13 06:36:57;;;;;;;9.98;3.98;;;;;;;-1.50;100.00;99558.52;1635057;86;21339;-86
2021/01/13 06:39:24;;;;;;;11.22;4.20;;;;;;;-1.41;100.00;99555.47;1565987;90;21236;-87
